KBDG

Blanding Municipal Airport

Blanding, Utah, USA
METAR KBDG 251835Z AUTO 18004KT 10SM 24/M06 A3026 RMK AO1 T02381065
Observed Flight Rules
Sep-25 @ 18:35 UTC (28 minutes ago)
Wind Visibility
180° at 4 knots 10 miles
Temperatures Readings
Current 24°C / 75°F
Dewpoint -7°C / 19°F
Humidity 12%
Altimeter 30.26" Hg
Pressure 1025 hPa
Elevation 1788
METAR KBDG 251835Z AUTO 18004KT 10SM 24/M06 A3026 RMK AO1 T02381065
Observed Flight Rules
Sep-25 @ 18:35 UTC
(28 minutes ago)
Wind Visibility
180° at 4 knots 10 miles
Temperature Dewpoint
24°C / 75°F -7°C / 19°F
Humidity Altimeter Pressure
12% 30.26" Hg 1025 hPa